Time;durP1;ratioP1;P1;durP2;ratioP2;P2;SDS_P1;SDS_P2;PMS_P1;PMS_P2;Temp;Humidity;BMP_temperature;BMP_pressure;BME280_temperature;BME280_humidity;BME280_pressure;Samples;Min_cycle;Max_cycle;Signal;HPM_P1;HPM_P2
2023/04/14 00:02:12;;;;;;;5.50;5.30;;;5.80;1.00;;;;;;5030538;28;21018;-65
2023/04/14 00:04:38;;;;;;;5.43;5.23;;;5.70;1.00;;;;;;5031132;28;20196;-65
2023/04/14 00:07:03;;;;;;;5.40;5.20;;;5.70;99.90;;;;;;5030838;28;20183;-65
2023/04/14 00:09:29;;;;;;;5.57;5.17;;;5.70;99.90;;;;;;5030708;28;20179;-65
2023/04/14 00:11:56;;;;;;;6.07;5.67;;;5.70;99.90;;;;;;5030409;28;20218;-65
2023/04/14 00:14:21;;;;;;;6.03;5.73;;;5.60;99.90;;;;;;5031010;28;20183;-66
2023/04/14 00:16:47;;;;;;;6.07;5.77;;;5.50;99.90;;;;;;5030936;28;20191;-65
2023/04/14 00:19:13;;;;;;;6.50;5.90;;;5.50;1.00;;;;;;5030679;28;20171;-66
2023/04/14 00:21:39;;;;;;;5.83;5.53;;;5.50;1.00;;;;;;5030850;28;20321;-66
2023/04/14 00:24:04;;;;;;;5.63;5.27;;;5.50;1.00;;;;;;5029507;28;20215;-65
2023/04/14 00:26:31;;;;;;;5.83;5.43;;;5.50;99.90;;;;;;5030939;28;20179;-65
2023/04/14 00:28:57;;;;;;;5.80;5.30;;;5.40;99.90;;;;;;5030873;28;20602;-65
2023/04/14 00:31:22;;;;;;;6.50;6.10;;;5.30;99.90;;;;;;5033715;28;20299;-65
2023/04/14 00:33:48;;;;;;;6.00;5.50;;;5.20;99.90;;;;;;5035062;28;20198;-65
2023/04/14 00:36:14;;;;;;;7.33;6.83;;;5.20;99.90;;;;;;5033887;28;20175;-65
2023/04/14 00:38:39;;;;;;;6.43;5.57;;;5.10;1.00;;;;;;5034265;28;20172;-65
2023/04/14 00:41:05;;;;;;;6.13;5.83;;;5.10;1.00;;;;;;5032264;28;20179;-65
2023/04/14 00:43:31;;;;;;;5.80;5.50;;;5.10;1.00;;;;;;5032858;28;20175;-66
2023/04/14 00:45:57;;;;;;;6.40;5.57;;;5.00;1.00;;;;;;5033688;28;20183;-66
2023/04/14 00:48:23;;;;;;;5.93;5.63;;;5.10;1.00;;;;;;5033946;28;20206;-66
2023/04/14 00:50:48;;;;;;;6.77;6.30;;;5.00;1.00;;;;;;5033780;28;20679;-65
2023/04/14 00:53:14;;;;;;;6.00;5.70;;;5.00;1.00;;;;;;5033902;28;20179;-65
2023/04/14 00:55:40;;;;;;;5.60;5.40;;;4.90;1.00;;;;;;5033782;28;20245;-65
2023/04/14 00:58:06;;;;;;;6.33;6.03;;;4.90;1.00;;;;;;5033777;28;20656;-65
2023/04/14 01:00:34;;;;;;;6.00;5.40;;;4.80;1.00;;;;;;5033306;28;20174;-65
2023/04/14 01:02:59;;;;;;;6.23;5.73;;;4.70;1.00;;;;;;5033939;28;20183;-65
2023/04/14 01:05:25;;;;;;;6.07;5.77;;;4.70;1.00;;;;;;5033472;28;20532;-65
2023/04/14 01:07:51;;;;;;;6.07;5.73;;;4.60;1.00;;;;;;5033886;28;20653;-65
2023/04/14 01:10:17;;;;;;;6.03;5.77;;;4.60;1.00;;;;;;5032990;28;20168;-66
2023/04/14 01:12:56;;;;;;;6.23;5.73;;;4.60;1.00;;;;;;5033850;28;20259;-66
2023/04/14 01:15:46;;;;;;;5.77;5.57;;;4.60;1.00;;;;;;5033316;28;20183;-65
2023/04/14 01:18:18;;;;;;;5.80;5.60;;;4.50;1.00;;;;;;5033412;28;20261;-66
2023/04/14 01:20:50;;;;;;;5.87;5.63;;;4.50;1.00;;;;;;5033156;28;20206;-65
2023/04/14 01:23:24;;;;;;;6.30;5.70;;;4.50;1.00;;;;;;5033670;28;20262;-65
2023/04/14 01:26:16;;;;;;;5.80;5.60;;;4.40;1.00;;;;;;5033611;28;20204;-66
2023/04/14 01:28:45;;;;;;;6.23;5.83;;;4.40;1.00;;;;;;5033547;28;20563;-65
2023/04/14 01:31:36;;;;;;;6.60;6.20;;;4.30;1.00;;;;;;5032757;28;20210;-65
2023/04/14 01:34:16;;;;;;;6.33;6.03;;;4.30;1.00;;;;;;5033136;28;20192;-65
2023/04/14 01:36:50;;;;;;;6.20;5.93;;;4.30;1.00;;;;;;5033098;28;20171;-65
2023/04/14 01:39:21;;;;;;;6.77;6.40;;;4.30;1.00;;;;;;5032981;28;20286;-65
2023/04/14 01:41:51;;;;;;;6.63;6.23;;;4.30;3.60;;;;;;5032636;28;20258;-65
2023/04/14 01:44:20;;;;;;;7.23;6.03;;;4.30;24.60;;;;;;5032439;28;20195;-65
2023/04/14 01:46:49;;;;;;;6.43;6.03;;;4.30;48.00;;;;;;5033087;28;20238;-65
2023/04/14 01:49:17;;;;;;;6.87;6.47;;;4.40;47.90;;;;;;5032625;28;20286;-66
2023/04/14 01:51:43;;;;;;;6.77;6.47;;;4.40;52.80;;;;;;5032972;28;20198;-65
2023/04/14 01:54:10;;;;;;;7.23;6.53;;;4.40;43.10;;;;;;5032503;28;20206;-65
2023/04/14 01:56:38;;;;;;;6.63;6.23;;;4.40;39.80;;;;;;5033025;28;20168;-65
2023/04/14 01:59:05;;;;;;;7.43;6.73;;;4.40;32.30;;;;;;5032359;28;20187;-65
2023/04/14 02:01:33;;;;;;;7.50;7.20;;;4.40;19.50;;;;;;5032385;28;20184;-66
2023/04/14 02:04:01;;;;;;;7.33;7.03;;;4.30;7.00;;;;;;5032249;28;20192;-65
2023/04/14 02:06:30;;;;;;;8.23;7.80;;;4.30;1.00;;;;;;5032625;28;20567;-65
2023/04/14 02:09:01;;;;;;;8.10;7.60;;;4.20;7.00;;;;;;5032667;28;20258;-66
2023/04/14 02:11:28;;;;;;;7.50;7.07;;;4.20;12.50;;;;;;5032306;28;20207;-65
2023/04/14 02:13:55;;;;;;;8.00;7.40;;;4.20;8.00;;;;;;5032641;28;20222;-66
2023/04/14 02:16:22;;;;;;;8.40;7.67;;;4.10;1.00;;;;;;5032472;28;20175;-65
2023/04/14 02:18:49;;;;;;;7.17;6.83;;;4.10;1.00;;;;;;5032191;28;20276;-65
2023/04/14 02:21:17;;;;;;;6.87;6.50;;;4.10;26.00;;;;;;5032060;28;20249;-65
2023/04/14 02:23:43;;;;;;;6.23;5.97;;;4.00;28.90;;;;;;5031939;28;20219;-65
2023/04/14 02:26:17;;;;;;;7.60;7.10;;;4.00;47.20;;;;;;5031981;28;20555;-66
2023/04/14 02:29:05;;;;;;;9.23;7.07;;;4.00;48.30;;;;;;5031943;28;20688;-65
2023/04/14 02:31:35;;;;;;;8.47;8.03;;;4.00;47.70;;;;;;5032055;28;20203;-66
2023/04/14 02:34:04;;;;;;;8.10;7.70;;;4.00;71.00;;;;;;5031655;28;20286;-65
2023/04/14 02:36:41;;;;;;;8.53;8.00;;;4.00;79.40;;;;;;5031812;28;20233;-65
2023/04/14 02:39:19;;;;;;;7.73;7.33;;;4.00;94.00;;;;;;5031641;28;20199;-65
2023/04/14 02:41:47;;;;;;;7.50;7.10;;;4.00;94.50;;;;;;5032083;28;20531;-65
2023/04/14 02:44:23;;;;;;;9.00;8.30;;;4.00;99.90;;;;;;5031379;28;20213;-65
2023/04/14 02:47:06;;;;;;;7.77;7.00;;;4.00;99.90;;;;;;5031772;28;20195;-65
2023/04/14 02:49:38;;;;;;;7.50;7.10;;;4.10;99.90;;;;;;5031299;28;20286;-65
2023/04/14 02:52:06;;;;;;;8.10;7.70;;;4.10;99.90;;;;;;5031301;28;20203;-64
2023/04/14 02:54:37;;;;;;;9.33;8.83;;;4.10;99.90;;;;;;5031193;28;20286;-65
2023/04/14 02:57:04;;;;;;;10.07;9.53;;;4.10;99.90;;;;;;5031773;28;20182;-64
2023/04/14 02:59:31;;;;;;;9.10;8.60;;;4.10;99.90;;;;;;5030934;28;20179;-64
2023/04/14 03:02:01;;;;;;;8.67;8.17;;;4.10;99.90;;;;;;5031745;28;20230;-64
2023/04/14 03:04:35;;;;;;;8.50;7.93;;;4.20;99.90;;;;;;5031268;28;20207;-64
2023/04/14 03:07:01;;;;;;;8.10;7.40;;;4.10;99.90;;;;;;5031669;28;20179;-64
2023/04/14 03:09:29;;;;;;;7.57;7.07;;;4.10;99.90;;;;;;5031033;28;20521;-65
2023/04/14 03:11:57;;;;;;;7.97;7.40;;;4.10;99.90;;;;;;5031450;28;20227;-64
2023/04/14 03:14:24;;;;;;;8.20;7.70;;;4.10;98.40;;;;;;5031303;28;20203;-64
2023/04/14 03:16:52;;;;;;;8.70;8.10;;;4.10;99.90;;;;;;5031577;28;20273;-64
2023/04/14 03:19:22;;;;;;;8.97;8.07;;;4.10;95.60;;;;;;5030786;28;20222;-64
2023/04/14 03:21:53;;;;;;;9.30;8.07;;;4.10;74.70;;;;;;5031547;28;20188;-64
2023/04/14 03:24:23;;;;;;;8.07;7.60;;;4.00;58.90;;;;;;5141094;23;21362;-67
2023/04/14 03:27:00;;;;;;;8.63;8.03;;;4.00;35.80;;;;;;4991600;28;20606;-64
2023/04/14 03:29:29;;;;;;;9.50;8.83;;;3.90;17.40;;;;;;4991785;28;20188;-67
2023/04/14 03:32:00;;;;;;;7.50;7.17;;;3.90;14.40;;;;;;4992060;28;20299;-66
2023/04/14 03:34:30;;;;;;;8.70;8.13;;;3.80;2.20;;;;;;4991872;28;20224;-66
2023/04/14 03:36:57;;;;;;;8.63;8.03;;;3.70;1.00;;;;;;4991985;28;20255;-66
2023/04/14 03:39:26;;;;;;;9.70;9.20;;;3.70;8.50;;;;;;4991775;28;20176;-66
2023/04/14 03:41:54;;;;;;;8.73;8.17;;;3.60;27.20;;;;;;4991860;28;20235;-67
2023/04/14 03:44:22;;;;;;;8.00;7.60;;;3.60;43.20;;;;;;4991702;28;20220;-66
2023/04/14 03:46:48;;;;;;;10.30;7.80;;;3.60;59.60;;;;;;4992075;28;20709;-64
2023/04/14 03:49:16;;;;;;;7.90;7.40;;;3.50;70.50;;;;;;4991569;28;20260;-64
2023/04/14 03:51:44;;;;;;;8.83;8.07;;;3.50;90.40;;;;;;4991616;28;20204;-64
2023/04/14 03:54:11;;;;;;;7.30;7.00;;;3.50;92.10;;;;;;4991360;28;20564;-64
2023/04/14 03:56:40;;;;;;;14.57;8.33;;;3.40;95.40;;;;;;4991712;28;20173;-63
2023/04/14 03:59:11;;;;;;;7.83;7.43;;;3.50;95.70;;;;;;4991667;28;20173;-64
2023/04/14 04:01:38;;;;;;;7.77;7.27;;;3.40;92.10;;;;;;4991588;28;20180;-64
2023/04/14 04:04:05;;;;;;;7.83;7.43;;;3.30;83.00;;;;;;4992689;28;20564;-66
2023/04/14 04:06:32;;;;;;;7.07;6.77;;;3.30;92.10;;;;;;4995407;28;20232;-66
2023/04/14 04:08:59;;;;;;;7.10;6.80;;;3.30;90.60;;;;;;4995691;28;20173;-67
2023/04/14 04:11:26;;;;;;;6.90;6.53;;;3.30;99.90;;;;;;4994961;28;20204;-66
2023/04/14 04:13:54;;;;;;;7.73;7.10;;;3.30;99.50;;;;;;4995427;28;20172;-67
2023/04/14 04:16:21;;;;;;;7.47;6.80;;;3.30;97.40;;;;;;4975901;28;20651;-66
2023/04/14 04:18:49;;;;;;;8.03;7.63;;;3.30;99.90;;;;;;4976030;28;20174;-67
2023/04/14 04:21:17;;;;;;;7.33;7.00;;;3.30;83.60;;;;;;4994641;28;20560;-67
2023/04/14 04:23:46;;;;;;;6.83;6.40;;;3.20;66.10;;;;;;4994737;28;20563;-66
2023/04/14 04:26:13;;;;;;;6.50;6.20;;;3.20;57.50;;;;;;4995346;28;20197;-66
2023/04/14 04:28:40;;;;;;;6.97;6.37;;;3.10;54.60;;;;;;4994134;28;20272;-68
2023/04/14 04:31:08;;;;;;;6.47;6.07;;;3.10;68.20;;;;;;4994810;28;20203;-67
2023/04/14 04:33:34;;;;;;;6.27;5.97;;;3.10;77.30;;;;;;4995170;28;20177;-67
2023/04/14 04:36:01;;;;;;;5.80;5.50;;;3.00;72.80;;;;;;4995158;28;20197;-66
2023/04/14 04:38:27;;;;;;;7.70;7.30;;;3.00;79.70;;;;;;4994939;28;20243;-66
2023/04/14 04:40:53;;;;;;;6.60;6.20;;;3.00;71.60;;;;;;4994520;28;20193;-67
2023/04/14 04:43:19;;;;;;;8.13;6.03;;;3.00;81.40;;;;;;4994877;28;20619;-67
2023/04/14 04:46:03;;;;;;;5.73;5.53;;;2.90;99.90;;;;;;4994932;28;20706;-65
2023/04/14 04:48:28;;;;;;;7.00;6.47;;;2.90;99.90;;;;;;4994497;28;20208;-64
2023/04/14 04:50:54;;;;;;;7.13;6.00;;;2.90;99.90;;;;;;4994480;28;20243;-65
2023/04/14 04:53:20;;;;;;;6.60;6.20;;;2.90;99.90;;;;;;4994696;28;20184;-64
2023/04/14 04:55:45;;;;;;;6.60;6.30;;;2.90;99.90;;;;;;4994757;28;20263;-65
2023/04/14 04:58:11;;;;;;;6.73;6.40;;;2.90;99.90;;;;;;4976717;28;20665;-65
2023/04/14 05:00:36;;;;;;;6.70;6.33;;;2.90;99.90;;;;;;4994422;28;20169;-64
2023/04/14 05:03:02;;;;;;;6.67;6.37;;;2.90;99.90;;;;;;4994305;28;20181;-65
2023/04/14 05:05:28;;;;;;;6.80;6.50;;;3.00;99.90;;;;;;4994609;28;20251;-65
2023/04/14 05:07:54;;;;;;;6.20;5.90;;;3.00;99.90;;;;;;4994322;28;20536;-66
2023/04/14 05:10:20;;;;;;;6.93;6.40;;;3.10;99.90;;;;;;4994094;28;20161;-65
2023/04/14 05:12:45;;;;;;;7.07;6.43;;;3.10;99.90;;;;;;4994270;28;20197;-64
2023/04/14 05:15:11;;;;;;;6.63;6.27;;;3.20;99.90;;;;;;4993692;28;20552;-65
2023/04/14 05:17:37;;;;;;;8.07;6.93;;;3.20;99.90;;;;;;4976423;28;20177;-64
2023/04/14 05:20:04;;;;;;;6.93;6.43;;;3.30;99.90;;;;;;4974482;28;20174;-65
2023/04/14 05:22:31;;;;;;;7.10;6.80;;;3.40;99.90;;;;;;4974892;28;20183;-68
2023/04/14 05:24:57;;;;;;;8.77;8.27;;;3.50;99.90;;;;;;4992899;28;20217;-67
2023/04/14 05:27:22;;;;;;;7.80;7.40;;;3.50;99.90;;;;;;4994279;28;20701;-66
2023/04/14 05:29:48;;;;;;;7.40;7.00;;;3.60;99.90;;;;;;4992724;28;20213;-64
2023/04/14 05:32:14;;;;;;;7.73;7.33;;;3.70;99.90;;;;;;4993829;28;20272;-64
2023/04/14 05:34:40;;;;;;;8.07;7.67;;;3.70;99.90;;;;;;4993811;28;20725;-65
2023/04/14 05:37:06;;;;;;;6.97;6.57;;;3.80;99.90;;;;;;4985714;28;20197;-65
2023/04/14 05:39:31;;;;;;;6.83;6.43;;;3.90;99.90;;;;;;4970461;28;20177;-65
2023/04/14 05:41:58;;;;;;;7.57;7.07;;;4.00;99.90;;;;;;4993984;28;20173;-64
2023/04/14 05:44:24;;;;;;;7.23;6.83;;;4.10;99.90;;;;;;4993454;28;20292;-65
2023/04/14 05:46:50;;;;;;;6.93;6.43;;;4.20;99.90;;;;;;4976174;28;20204;-64
2023/04/14 05:49:15;;;;;;;6.93;6.33;;;4.30;99.90;;;;;;4993246;28;20184;-66
2023/04/14 05:51:41;;;;;;;6.70;6.23;;;4.30;99.90;;;;;;4976304;28;20200;-65
2023/04/14 05:54:07;;;;;;;7.20;6.77;;;4.40;99.90;;;;;;4993161;28;20569;-65
2023/04/14 05:56:32;;;;;;;6.83;6.47;;;4.50;99.90;;;;;;4993714;28;20173;-65
2023/04/14 05:58:58;;;;;;;7.80;6.53;;;4.50;99.90;;;;;;4993399;28;20234;-65
2023/04/14 06:01:24;;;;;;;7.53;6.83;;;4.60;99.90;;;;;;4992431;28;20291;-65
2023/04/14 06:03:49;;;;;;;6.63;6.23;;;4.60;99.90;;;;;;4974381;28;20177;-65
2023/04/14 06:06:15;;;;;;;11.80;6.50;;;4.70;99.90;;;;;;4990180;28;20169;-66
2023/04/14 06:08:40;;;;;;;6.97;6.27;;;4.90;99.90;;;;;;4977273;28;20260;-66
2023/04/14 06:11:06;;;;;;;7.33;6.73;;;5.20;99.90;;;;;;4975452;28;20208;-64
2023/04/14 06:13:31;;;;;;;6.40;6.00;;;5.50;99.90;;;;;;4975554;28;20565;-65
2023/04/14 06:15:58;;;;;;;6.67;6.27;;;5.90;99.90;;;;;;4993130;28;20235;-66
2023/04/14 06:18:23;;;;;;;6.53;6.03;;;6.20;99.90;;;;;;4992664;28;20200;-66
2023/04/14 06:20:49;;;;;;;12.23;6.87;;;6.50;99.90;;;;;;4975264;28;20181;-65
2023/04/14 06:23:15;;;;;;;8.87;8.07;;;6.90;42.20;;;;;;4992710;28;20176;-65
2023/04/14 06:25:40;;;;;;;6.70;6.20;;;7.30;1.00;;;;;;4992883;28;20212;-64
2023/04/14 06:28:06;;;;;;;7.07;6.57;;;7.70;1.00;;;;;;4974356;28;20195;-65
2023/04/14 06:30:32;;;;;;;7.83;6.67;;;8.00;99.90;;;;;;4992179;28;20534;-66
2023/04/14 06:33:02;;;;;;;9.80;6.90;;;8.50;1.00;;;;;;4992613;28;20223;-66
2023/04/14 06:35:29;;;;;;;7.03;6.53;;;8.90;99.90;;;;;;4975410;28;20197;-65
2023/04/14 06:37:54;;;;;;;6.37;5.87;;;9.30;99.90;;;;;;4992556;28;20194;-65
2023/04/14 06:40:20;;;;;;;9.90;5.00;;;9.70;56.10;;;;;;4992359;28;20173;-66
2023/04/14 06:42:46;;;;;;;5.93;5.40;;;10.00;1.00;;;;;;4992786;28;20183;-65
2023/04/14 06:45:11;;;;;;;5.23;4.83;;;10.30;99.90;;;;;;4992434;28;20267;-65
2023/04/14 06:47:37;;;;;;;5.70;5.40;;;10.40;99.90;;;;;;4975437;28;20669;-64
2023/04/14 06:50:03;;;;;;;5.47;4.50;;;10.60;99.90;;;;;;4992137;28;20658;-65
2023/04/14 06:52:29;;;;;;;4.73;4.33;;;11.00;99.90;;;;;;4992516;28;20215;-65
2023/04/14 06:54:54;;;;;;;5.27;4.87;;;11.40;99.90;;;;;;4992239;28;20574;-66
2023/04/14 06:57:20;;;;;;;4.20;3.90;;;11.80;99.90;;;;;;4992563;28;20180;-65
2023/04/14 06:59:46;;;;;;;3.50;3.30;;;12.20;99.90;;;;;;4991972;28;20177;-65
2023/04/14 07:02:11;;;;;;;4.37;3.80;;;12.50;99.90;;;;;;4992408;28;20180;-65
2023/04/14 07:04:37;;;;;;;4.00;3.80;;;12.80;99.90;;;;;;4991956;28;20335;-66
2023/04/14 07:07:02;;;;;;;4.63;4.23;;;13.10;99.90;;;;;;4975033;28;20207;-66
2023/04/14 07:09:28;;;;;;;5.87;4.10;;;13.40;99.90;;;;;;4992080;28;20591;-64
2023/04/14 07:11:56;;;;;;;4.70;3.57;;;13.70;99.90;;;;;;4975011;28;20204;-65
2023/04/14 07:14:22;;;;;;;4.00;3.70;;;14.10;99.90;;;;;;4991587;28;20200;-64
2023/04/14 07:16:51;;;;;;;3.80;3.60;;;14.60;99.90;;;;;;4992399;28;20251;-65
2023/04/14 07:19:17;;;;;;;5.40;3.77;;;14.70;99.90;;;;;;4985445;28;20521;-66
2023/04/14 07:21:46;;;;;;;3.80;3.40;;;14.90;99.90;;;;;;4972665;28;20658;-65
2023/04/14 07:24:12;;;;;;;5.33;3.67;;;15.30;99.90;;;;;;4978500;28;20200;-65
2023/04/14 07:26:37;;;;;;;5.30;4.00;;;15.60;99.90;;;;;;4992390;28;20596;-65
2023/04/14 07:29:03;;;;;;;6.50;4.00;;;15.70;99.90;;;;;;4990822;28;20256;-67
2023/04/14 07:31:32;;;;;;;4.20;3.83;;;15.90;99.90;;;;;;4991740;28;20208;-64
2023/04/14 07:33:58;;;;;;;6.23;4.27;;;16.10;99.90;;;;;;4991816;28;20291;-66
2023/04/14 07:36:24;;;;;;;4.87;4.10;;;16.30;99.90;;;;;;4992025;28;20255;-65
2023/04/14 07:38:50;;;;;;;4.70;4.00;;;16.50;99.90;;;;;;4992490;28;20188;-66
2023/04/14 07:41:16;;;;;;;6.87;4.47;;;16.80;99.90;;;;;;4995540;28;20252;-66
2023/04/14 07:43:42;;;;;;;4.23;3.80;;;17.00;99.90;;;;;;4995786;28;20180;-66
2023/04/14 07:46:08;;;;;;;4.27;3.97;;;17.10;99.90;;;;;;4995729;28;20179;-66
2023/04/14 07:48:35;;;;;;;8.63;3.87;;;17.30;99.90;;;;;;4995647;28;20261;-66
2023/04/14 07:51:03;;;;;;;4.50;3.40;;;17.50;99.90;;;;;;4995446;28;20201;-66
2023/04/14 07:53:29;;;;;;;4.43;3.23;;;17.70;99.90;;;;;;4995292;28;20177;-66
2023/04/14 07:55:55;;;;;;;5.00;3.33;;;17.70;99.90;;;;;;4995831;28;20247;-66
2023/04/14 07:58:21;;;;;;;5.93;3.80;;;17.70;99.90;;;;;;4995076;28;20189;-65
2023/04/14 08:00:46;;;;;;;5.37;3.30;;;17.70;99.90;;;;;;4995673;28;20172;-66
2023/04/14 08:03:12;;;;;;;5.88;3.30;;;17.70;99.90;;;;;;4995253;28;20192;-66
2023/04/14 08:05:38;;;;;;;4.70;3.50;;;17.80;99.90;;;;;;4995643;28;20216;-65
2023/04/14 08:08:04;;;;;;;3.20;2.90;;;18.00;99.90;;;;;;4977533;28;20180;-66
2023/04/14 08:10:29;;;;;;;3.45;3.22;;;17.90;99.90;;;;;;4995188;28;20245;-64
2023/04/14 08:12:55;;;;;;;5.88;3.95;;;17.70;99.90;;;;;;4995062;28;20211;-66
2023/04/14 08:15:20;;;;;;;4.20;3.83;;;17.50;99.90;;;;;;4994938;28;20200;-65
2023/04/14 08:17:46;;;;;;;3.93;3.50;;;17.40;99.90;;;;;;4995142;28;20199;-65
2023/04/14 08:20:12;;;;;;;3.90;3.60;;;17.50;99.90;;;;;;4994894;28;20531;-64
2023/04/14 08:22:37;;;;;;;4.90;3.40;;;17.40;99.90;;;;;;4994853;28;20232;-66
2023/04/14 08:25:03;;;;;;;4.40;4.00;;;17.40;99.90;;;;;;4995049;28;20208;-66
2023/04/14 08:27:30;;;;;;;3.63;2.90;;;17.50;99.90;;;;;;4977319;28;20176;-65
2023/04/14 08:29:56;;;;;;;6.57;3.70;;;17.70;99.90;;;;;;4976608;28;20272;-65
2023/04/14 08:32:21;;;;;;;3.92;3.53;;;18.10;99.90;;;;;;4994564;28;20287;-65
2023/04/14 08:34:47;;;;;;;4.78;3.70;;;18.30;99.90;;;;;;4995101;28;20181;-65
2023/04/14 08:37:13;;;;;;;6.30;3.50;;;18.50;99.90;;;;;;4994657;28;20173;-65
2023/04/14 08:39:38;;;;;;;7.63;4.18;;;18.30;99.90;;;;;;4994780;28;20631;-65
2023/04/14 08:42:05;;;;;;;5.20;3.72;;;18.30;99.90;;;;;;4994546;28;20234;-65
2023/04/14 08:44:30;;;;;;;4.95;3.53;;;18.50;99.90;;;;;;4994244;28;20564;-66
2023/04/14 08:46:57;;;;;;;5.53;3.90;;;18.70;99.90;;;;;;4995071;28;20180;-66
2023/04/14 08:49:39;;;;;;;4.80;3.65;;;19.00;99.90;;;;;;4994081;28;20554;-66
2023/04/14 08:52:13;;;;;;;5.60;3.83;;;19.10;99.90;;;;;;4976948;28;20205;-66
2023/04/14 08:54:39;;;;;;;6.38;4.05;;;19.10;99.90;;;;;;4975287;28;20564;-66
2023/04/14 08:57:10;;;;;;;6.38;4.03;;;19.10;99.90;;;;;;4975087;28;20628;-66
2023/04/14 08:59:37;;;;;;;3.38;3.17;;;19.20;99.90;;;;;;4975001;28;20172;-66
2023/04/14 09:02:06;;;;;;;5.32;4.03;;;19.40;99.90;;;;;;4957677;28;20178;-66
2023/04/14 09:04:33;;;;;;;4.65;3.67;;;19.40;99.90;;;;;;4977373;28;20189;-66
2023/04/14 09:07:01;;;;;;;3.55;3.25;;;19.40;99.90;;;;;;4994504;28;20173;-66
2023/04/14 09:09:29;;;;;;;3.90;3.40;;;19.50;99.90;;;;;;4994047;28;20549;-66
2023/04/14 09:11:56;;;;;;;4.60;3.45;;;19.50;99.90;;;;;;4994316;28;20706;-66
2023/04/14 09:14:22;;;;;;;6.28;3.67;;;19.30;99.90;;;;;;4993667;28;20197;-65
2023/04/14 09:16:52;;;;;;;3.60;3.30;;;19.40;99.90;;;;;;4994343;28;20176;-65
2023/04/14 09:19:20;;;;;;;3.53;3.22;;;19.40;99.90;;;;;;4993652;28;20188;-66
2023/04/14 09:21:46;;;;;;;3.78;3.20;;;19.50;99.80;;;;;;4994390;28;20169;-66
2023/04/14 09:24:11;;;;;;;3.25;2.90;;;19.90;99.10;;;;;;4993594;28;20216;-66
2023/04/14 09:26:37;;;;;;;3.80;3.30;;;20.20;99.90;;;;;;4994657;28;20534;-66
2023/04/14 09:29:03;;;;;;;4.47;3.40;;;20.30;98.20;;;;;;4992495;28;20185;-65
2023/04/14 09:31:29;;;;;;;4.10;3.10;;;20.40;99.90;;;;;;4993854;28;20209;-65
2023/04/14 09:33:54;;;;;;;5.78;3.20;;;20.30;97.70;;;;;;4993793;28;20243;-66
2023/04/14 09:36:22;;;;;;;5.95;3.22;;;20.20;97.40;;;;;;4994013;28;20579;-67
2023/04/14 09:38:49;;;;;;;3.60;3.33;;;20.20;98.40;;;;;;4993786;28;20177;-66
2023/04/14 09:41:21;;;;;;;4.03;3.50;;;20.20;98.00;;;;;;4993540;28;20173;-66
2023/04/14 09:43:49;;;;;;;4.50;4.10;;;20.00;97.30;;;;;;4976355;28;20324;-65
2023/04/14 09:46:15;;;;;;;4.13;3.83;;;19.80;98.00;;;;;;4993802;28;20177;-65
2023/04/14 09:48:54;;;;;;;7.40;3.92;;;19.50;96.60;;;;;;4993052;28;20207;-65
2023/04/14 09:51:27;;;;;;;4.18;3.47;;;19.30;98.40;;;;;;4993427;28;20204;-65
2023/04/14 09:53:53;;;;;;;5.80;3.17;;;19.40;97.30;;;;;;4993514;28;20177;-64
2023/04/14 09:56:25;;;;;;;3.50;3.20;;;19.40;98.30;;;;;;4993600;28;20192;-65
2023/04/14 09:58:50;;;;;;;3.97;3.67;;;19.40;98.40;;;;;;4993802;28;20176;-65
2023/04/14 10:01:18;;;;;;;5.32;3.35;;;19.40;98.40;;;;;;4993606;28;20176;-65
2023/04/14 10:03:45;;;;;;;3.60;3.40;;;19.20;97.00;;;;;;4993568;28;20213;-65
2023/04/14 10:06:19;;;;;;;3.30;3.10;;;19.10;96.40;;;;;;4993485;28;20268;-65
2023/04/14 10:08:49;;;;;;;3.63;3.38;;;19.20;95.80;;;;;;4993220;28;20573;-64
2023/04/14 10:11:23;;;;;;;4.53;3.00;;;19.00;95.90;;;;;;4992938;28;20196;-65
2023/04/14 10:13:54;;;;;;;4.20;3.55;;;18.90;96.50;;;;;;4993355;28;20177;-64
2023/04/14 10:16:21;;;;;;;4.32;4.00;;;19.20;99.30;;;;;;4993128;28;20185;-65
2023/04/14 10:18:46;;;;;;;3.80;3.50;;;19.40;97.20;;;;;;4993149;28;20655;-65
2023/04/14 10:21:14;;;;;;;4.57;3.08;;;19.60;97.10;;;;;;4992860;28;20252;-65
2023/04/14 10:23:41;;;;;;;3.50;3.30;;;19.70;96.40;;;;;;4992974;28;20203;-66
2023/04/14 10:26:08;;;;;;;3.70;3.40;;;19.60;96.00;;;;;;4992985;28;20247;-65
2023/04/14 10:28:41;;;;;;;4.35;3.10;;;19.70;97.20;;;;;;4993042;28;20185;-65
2023/04/14 10:31:16;;;;;;;3.55;3.25;;;19.80;96.00;;;;;;4992477;28;20734;-65
2023/04/14 10:33:42;;;;;;;4.07;3.60;;;19.70;93.30;;;;;;4993089;28;20164;-65
2023/04/14 10:36:08;;;;;;;4.03;3.67;;;19.70;94.00;;;;;;4992589;28;20300;-64
2023/04/14 10:38:45;;;;;;;3.05;2.85;;;19.70;93.90;;;;;;4993049;28;20168;-66
2023/04/14 10:41:11;;;;;;;6.68;3.50;;;19.40;96.00;;;;;;4992219;28;20506;-66
2023/04/14 10:43:38;;;;;;;4.15;3.20;;;19.50;95.30;;;;;;4992037;28;20173;-65
2023/04/14 10:46:06;;;;;;;4.00;3.10;;;19.50;94.20;;;;;;4992532;28;20212;-64
2023/04/14 10:48:34;;;;;;;3.40;3.10;;;19.40;93.20;;;;;;4992808;28;20211;-64
2023/04/14 10:51:03;;;;;;;4.60;3.28;;;19.30;94.50;;;;;;4992289;28;20216;-64
2023/04/14 10:53:46;;;;;;;6.40;3.72;;;19.20;94.50;;;;;;4992739;28;20180;-64
2023/04/14 10:56:12;;;;;;;3.75;3.42;;;19.10;96.10;;;;;;4992364;28;20172;-65
2023/04/14 10:58:38;;;;;;;3.38;3.17;;;19.30;94.00;;;;;;4992592;28;20228;-65
2023/04/14 11:01:24;;;;;;;3.20;3.00;;;19.40;91.70;;;;;;4991239;28;20187;-65
2023/04/14 11:03:51;;;;;;;4.07;2.92;;;19.50;94.80;;;;;;4992194;28;20654;-65
2023/04/14 11:06:45;;;;;;;3.03;2.83;;;19.80;93.40;;;;;;4992145;28;20184;-64
2023/04/14 11:09:33;;;;;;;3.58;3.28;;;20.10;92.10;;;;;;4992140;28;20173;-65
2023/04/14 11:12:25;;;;;;;3.50;3.20;;;20.40;90.00;;;;;;4992226;28;20347;-66
2023/04/14 11:15:03;;;;;;;3.30;3.08;;;20.50;90.70;;;;;;4991832;28;20562;-65
2023/04/14 11:17:31;;;;;;;3.40;3.10;;;20.60;92.80;;;;;;4992021;28;20180;-65
2023/04/14 11:19:57;;;;;;;3.22;3.03;;;20.50;90.30;;;;;;4991838;28;20177;-65
2023/04/14 11:22:44;;;;;;;3.75;3.45;;;20.40;89.10;;;;;;4991880;28;20189;-65
2023/04/14 11:25:11;;;;;;;3.25;2.95;;;20.40;89.80;;;;;;4992021;28;20224;-65
2023/04/14 11:27:38;;;;;;;7.28;3.33;;;20.20;90.00;;;;;;4992599;28;20676;-64
2023/04/14 11:30:06;;;;;;;4.20;3.90;;;20.00;89.60;;;;;;4991835;28;20631;-64
2023/04/14 11:32:47;;;;;;;3.67;3.47;;;19.90;89.30;;;;;;4991703;28;20866;-65
2023/04/14 11:35:13;;;;;;;3.67;3.38;;;19.80;90.70;;;;;;4990128;28;20196;-64
2023/04/14 11:37:39;;;;;;;4.43;4.22;;;20.10;93.00;;;;;;4989341;28;20223;-64
2023/04/14 11:40:07;;;;;;;3.75;3.55;;;20.40;91.70;;;;;;4991409;28;20204;-64
2023/04/14 11:42:32;;;;;;;3.85;3.65;;;20.30;84.60;;;;;;4991851;28;20176;-65
2023/04/14 11:44:58;;;;;;;3.60;3.20;;;20.20;87.70;;;;;;4991573;28;20227;-64
2023/04/14 11:47:24;;;;;;;3.90;3.60;;;20.20;81.30;;;;;;4991642;28;20199;-65
2023/04/14 11:49:50;;;;;;;3.80;3.50;;;20.30;87.00;;;;;;4991613;28;20181;-64
2023/04/14 11:52:19;;;;;;;5.55;5.05;;;20.40;86.10;;;;;;4991552;28;20212;-64
2023/04/14 11:54:45;;;;;;;4.13;3.88;;;20.40;86.30;;;;;;4991714;28;20276;-63
2023/04/14 11:57:12;;;;;;;4.18;3.88;;;20.50;91.50;;;;;;4991512;28;20264;-64
2023/04/14 11:59:42;;;;;;;7.25;6.72;;;20.70;85.80;;;;;;4991454;28;20260;-63
2023/04/14 12:02:15;;;;;;;4.25;3.67;;;20.70;87.70;;;;;;4991076;28;20263;-64
2023/04/14 12:04:41;;;;;;;5.07;4.85;;;20.80;87.50;;;;;;4991485;28;20271;-64
2023/04/14 12:07:12;;;;;;;6.35;5.82;;;20.80;81.90;;;;;;4991477;28;20220;-64
2023/04/14 12:09:43;;;;;;;4.90;4.53;;;20.80;88.50;;;;;;4991592;28;20173;-64
2023/04/14 12:12:13;;;;;;;4.63;4.43;;;21.00;86.00;;;;;;4991205;28;20232;-64
2023/04/14 12:14:47;;;;;;;4.68;4.40;;;21.20;87.00;;;;;;4991620;28;20544;-64
2023/04/14 12:17:16;;;;;;;3.67;3.47;;;21.30;85.40;;;;;;4991457;28;20186;-64
2023/04/14 12:19:43;;;;;;;4.47;4.25;;;21.40;87.30;;;;;;4991074;28;20177;-64
2023/04/14 12:22:09;;;;;;;5.03;4.70;;;21.40;82.60;;;;;;4991363;28;20181;-64
2023/04/14 12:24:40;;;;;;;4.60;4.30;;;21.50;83.00;;;;;;4991525;28;20259;-64
2023/04/14 12:27:08;;;;;;;4.55;4.35;;;21.20;79.50;;;;;;4995258;28;20527;-64
2023/04/14 12:29:35;;;;;;;4.93;4.47;;;21.20;82.00;;;;;;4994690;28;20247;-64
2023/04/14 12:32:10;;;;;;;3.53;3.25;;;21.00;81.70;;;;;;4995119;28;20209;-64
2023/04/14 12:34:35;;;;;;;3.90;3.70;;;21.00;81.10;;;;;;4994456;28;20196;-64
2023/04/14 12:37:11;;;;;;;5.18;4.65;;;20.90;78.50;;;;;;4995040;28;20165;-64
2023/04/14 12:39:58;;;;;;;4.75;4.45;;;21.00;80.50;;;;;;4994440;28;20545;-64
2023/04/14 12:42:29;;;;;;;6.30;4.35;;;21.00;80.90;;;;;;4995020;28;20650;-63
2023/04/14 12:45:01;;;;;;;3.97;3.65;;;21.00;78.90;;;;;;4994757;28;20292;-64
2023/04/14 12:47:27;;;;;;;4.03;3.72;;;21.30;84.60;;;;;;4993590;28;20614;-64
2023/04/14 12:49:54;;;;;;;4.68;4.38;;;21.30;73.70;;;;;;4994484;28;20191;-64
2023/04/14 12:52:37;;;;;;;3.80;3.50;;;21.30;82.90;;;;;;4993969;28;20236;-63
2023/04/14 12:55:04;;;;;;;3.88;3.58;;;21.50;80.40;;;;;;4994655;28;20196;-64
2023/04/14 12:57:30;;;;;;;3.47;3.22;;;21.40;73.70;;;;;;4994336;28;20200;-64
2023/04/14 12:59:56;;;;;;;4.32;3.88;;;21.00;68.60;;;;;;4994148;28;20589;-64